KFDW

Details ICAO KFDW
Name Fairfield Co
Region United States
Timezone America/New_York (UTC-5.0)
Plans Departing 8
Arriving 4
Stats Elevation 577 ft / 176 m (AMSL)
Location 34.315464° -81.108800°
Runways 1
Magnetic Variation 7.432° W
Sunrise 2017-12-11 12:22:09 UTC / 2017-12-11 07:22:09 Local
Sunset 2017-12-11 22:16:21 UTC / 2017-12-11 17:16:21 Local
Advertisement - Login to hide

Runways

ID Width Length Bearing (true) Bearing (mag) Surface Threshold Offset Overrun Length
04 100 ft / 30 m 5,010 ft / 1,527 m 38.09° 45.52° Asphalt 0 ft / 0 m 0 ft / 0 m
22 100 ft / 30 m 5,010 ft / 1,527 m 218.10° 225.53° Asphalt 0 ft / 0 m 0 ft / 0 m

Map

Weather


0- 5 10 15 20 25 30 35+ Temperature / ° C

Clouds and Precipitation
Forecast for 2017-12-11 18:00 UTC. Updated 2 hours ago

Ground ~20,000 ft ~40,000 ft Winds

METAR

KFDW 111855Z AUTO 22005KT 10SM CLR 13/M01 A3006 RMK AO1

TAF

Not found

Frequencies

Recorded 119.07 MHz AWOS 3
Approach 133.40 MHz COLUMBIA APP/DEP
Unicom 122.80 MHz CTAF/UNICOM
Warning: Do not use this data for real-world aviation or navigation. No guarantee of current accuracy is given.